createdAt,value
2019-05-16T00:00:34.419Z,7.35
2019-05-16T00:03:07.993Z,7.38
2019-05-16T00:05:50.812Z,7.09
2019-05-16T00:08:13.865Z,7.24
2019-05-16T00:10:45.228Z,7.05
2019-05-16T00:13:18.698Z,7.08
2019-05-16T00:15:51.747Z,7.19
2019-05-16T00:18:23.174Z,7.23
2019-05-16T00:20:54.428Z,7.18
2019-05-16T00:23:25.775Z,7.02
2019-05-16T00:25:58.609Z,7.03
2019-05-16T00:28:29.939Z,7.05
2019-05-16T00:31:01.955Z,7.03
2019-05-16T00:33:38.038Z,7.18
2019-05-16T00:36:13.157Z,7.12
2019-05-16T00:38:45.357Z,7.11
2019-05-16T00:41:17.905Z,7.03
2019-05-16T00:43:50.069Z,7.07
2019-05-16T00:46:23.379Z,7.04
2019-05-16T00:48:56.328Z,6.94
2019-05-16T00:51:28.741Z,6.93
2019-05-16T00:54:00.047Z,6.92
2019-05-16T00:56:34.407Z,6.91
2019-05-16T00:59:08.474Z,6.94
2019-05-16T01:01:40.401Z,6.93
2019-05-16T01:04:14.106Z,6.90
2019-05-16T01:06:45.661Z,6.88
2019-05-16T01:09:18.794Z,6.94
2019-05-16T01:11:50.853Z,7.01
2019-05-16T01:14:22.864Z,6.99
2019-05-16T01:16:54.957Z,6.93
2019-05-16T01:19:27.818Z,7.03
2019-05-16T01:21:59.837Z,7.04
2019-05-16T01:24:34.233Z,7.00
2019-05-16T01:27:05.486Z,7.03
2019-05-16T01:29:38.470Z,6.94
2019-05-16T01:32:10.680Z,6.97
2019-05-16T01:34:42.531Z,7.03
2019-05-16T01:37:14.572Z,7.03
2019-05-16T01:39:48.338Z,6.97
2019-05-16T01:42:20.293Z,6.97
2019-05-16T01:44:52.250Z,6.96
2019-05-16T01:47:24.096Z,7.02
2019-05-16T01:49:58.078Z,7.05
2019-05-16T01:52:29.772Z,7.04
2019-05-16T01:55:01.712Z,7.01
2019-05-16T01:57:33.609Z,6.94
2019-05-16T02:00:08.423Z,6.89
2019-05-16T02:02:42.560Z,6.99
2019-05-16T02:05:14.612Z,6.96
2019-05-16T02:07:48.055Z,7.03
2019-05-16T02:10:20.368Z,7.11
2019-05-16T02:12:54.108Z,7.07
2019-05-16T02:15:28.508Z,6.97
2019-05-16T02:17:59.972Z,7.05
2019-05-16T02:20:31.940Z,6.97
2019-05-16T02:23:03.884Z,7.10
2019-05-16T02:25:38.092Z,7.03
2019-05-16T02:28:09.493Z,7.09
2019-05-16T02:30:42.185Z,7.12
2019-05-16T02:33:14.336Z,7.11
2019-05-16T02:35:46.406Z,7.00
2019-05-16T02:38:21.098Z,7.08
2019-05-16T02:40:55.087Z,7.09
2019-05-16T02:43:26.681Z,7.00
2019-05-16T02:46:01.190Z,7.11
2019-05-16T02:48:35.355Z,7.18
2019-05-16T02:51:05.187Z,7.17
2019-05-16T02:53:37.029Z,7.12
2019-05-16T02:56:21.373Z,7.16
2019-05-16T02:59:01.690Z,7.12
2019-05-16T03:08:03.143Z,7.10
2019-05-16T03:10:37.208Z,7.22
2019-05-16T03:13:11.281Z,7.23
2019-05-16T03:15:45.592Z,7.24
2019-05-16T03:18:21.465Z,7.28
2019-05-16T03:20:56.161Z,7.19
2019-05-16T03:23:30.817Z,7.20
2019-05-16T03:26:03.255Z,7.26
2019-05-16T03:28:41.101Z,7.28
2019-05-16T03:31:15.918Z,7.31
2019-05-16T03:33:58.604Z,7.28
2019-05-16T03:36:46.033Z,7.34
2019-05-16T03:39:26.345Z,7.27
2019-05-16T04:36:27.027Z,7.68
2019-05-16T04:39:01.585Z,7.63
2019-05-16T04:41:32.001Z,7.68
2019-05-16T04:44:04.968Z,7.72
2019-05-16T04:46:36.442Z,7.79
2019-05-16T04:49:13.248Z,7.85
2019-05-16T04:51:51.608Z,7.95
2019-05-16T04:54:25.222Z,8.00
2019-05-16T04:56:57.389Z,8.03
2019-05-16T04:59:31.394Z,8.08
2019-05-16T05:02:02.773Z,8.08
2019-05-16T05:04:34.605Z,8.22
2019-05-16T05:07:11.214Z,8.19
2019-05-16T05:09:51.534Z,8.21
2019-05-16T05:12:23.413Z,8.26
2019-05-16T05:14:54.695Z,8.26
2019-05-16T05:17:26.580Z,8.30
2019-05-16T05:20:01.183Z,8.31
2019-05-16T05:22:32.660Z,8.23
2019-05-16T05:25:04.401Z,8.30
2019-05-16T05:27:36.256Z,8.29
2019-05-16T05:30:10.562Z,8.29
2019-05-16T05:32:41.888Z,8.33
2019-05-16T05:35:14.146Z,8.37
2019-05-16T05:37:46.017Z,8.39
2019-05-16T05:40:19.922Z,8.35
2019-05-16T05:42:51.216Z,8.45
2019-05-16T05:45:23.114Z,8.44
2019-05-16T05:47:54.995Z,8.50
2019-05-16T05:50:26.967Z,8.51
2019-05-16T05:53:01.525Z,8.60
2019-05-16T05:55:31.814Z,8.64
2019-05-16T05:58:03.658Z,8.67
2019-05-16T06:00:35.538Z,8.69
2019-05-16T06:03:14.307Z,8.75
2019-05-16T06:05:46.157Z,8.86
2019-05-16T06:08:20.089Z,8.95
2019-05-16T06:10:51.641Z,8.96
2019-05-16T06:13:23.508Z,8.99
2019-05-16T06:15:55.401Z,9.06
2019-05-16T06:18:27.257Z,9.05
2019-05-16T06:21:00.525Z,9.13
2019-05-16T06:23:31.919Z,9.12
2019-05-16T06:26:03.715Z,9.25
2019-05-16T06:28:35.587Z,9.23
2019-05-16T06:31:07.533Z,9.29
2019-05-16T06:33:41.124Z,9.20
2019-05-16T06:36:13.287Z,9.34
2019-05-16T06:38:45.177Z,9.33
2019-05-16T06:41:17.000Z,9.38
2019-05-16T06:43:50.751Z,9.41
2019-05-16T06:46:22.832Z,9.43
2019-05-16T06:48:54.818Z,9.42
2019-05-16T06:51:26.641Z,9.49
2019-05-16T06:54:00.382Z,9.56
2019-05-16T06:56:32.128Z,9.53
2019-05-16T06:59:04.103Z,9.58
2019-05-16T07:01:35.981Z,9.60
2019-05-16T07:04:10.238Z,9.64
2019-05-16T07:06:54.737Z,9.69
2019-05-16T07:09:15.293Z,9.61
2019-05-16T07:11:47.280Z,9.66
2019-05-16T07:14:22.537Z,9.78
2019-05-16T07:16:51.412Z,9.83
2019-05-16T07:19:23.120Z,9.96
2019-05-16T07:21:54.948Z,9.97
2019-05-16T07:24:26.941Z,10.05
2019-05-16T07:27:00.303Z,10.04
2019-05-16T07:29:33.497Z,10.03
2019-05-16T07:32:05.668Z,10.05
2019-05-16T07:34:37.454Z,10.14
2019-05-16T07:37:10.785Z,10.23
2019-05-16T07:39:42.087Z,10.29
2019-05-16T07:42:13.881Z,10.34
2019-05-16T07:44:45.665Z,10.38
2019-05-16T07:47:17.498Z,10.43
2019-05-16T07:49:50.109Z,10.52
2019-05-16T07:52:22.269Z,10.62
2019-05-16T07:54:54.174Z,10.69
2019-05-16T07:57:26.052Z,10.82
2019-05-16T08:00:00.032Z,10.89
2019-05-16T08:02:31.388Z,11.00
2019-05-16T08:05:03.215Z,11.07
2019-05-16T08:07:35.106Z,11.12
2019-05-16T08:10:10.562Z,11.19
2019-05-16T08:12:42.096Z,11.30
2019-05-16T08:15:16.144Z,11.28
2019-05-16T08:17:51.136Z,11.30
2019-05-16T08:20:22.178Z,11.16
2019-05-16T08:22:53.333Z,11.14
2019-05-16T08:25:25.166Z,11.23
2019-05-16T08:27:57.101Z,11.33
2019-05-16T08:30:31.682Z,11.40
2019-05-16T08:47:47.254Z,12.09
2019-05-16T09:05:43.010Z,13.44
2019-05-16T09:08:19.605Z,13.31
2019-05-16T09:11:00.994Z,13.35
2019-05-16T09:13:27.818Z,13.32
2019-05-16T09:21:07.107Z,12.84
2019-05-16T09:23:38.612Z,12.37
2019-05-16T09:26:09.898Z,12.52
2019-05-16T09:28:43.162Z,12.66
2019-05-16T09:31:17.445Z,12.74
2019-05-16T09:33:47.890Z,12.77
2019-05-16T09:36:21.514Z,12.83
2019-05-16T09:38:53.482Z,12.73
2019-05-16T09:41:27.252Z,12.90
2019-05-16T09:43:59.599Z,13.04
2019-05-16T09:46:31.605Z,13.13
2019-05-16T09:49:16.705Z,13.50
2019-05-16T09:51:37.725Z,14.24
2019-05-16T09:54:09.996Z,14.77
2019-05-16T09:56:42.019Z,15.60
2019-05-16T09:59:14.507Z,15.66
2019-05-16T10:01:47.762Z,15.44
2019-05-16T10:04:19.887Z,14.95
2019-05-16T10:06:51.723Z,14.69
2019-05-16T10:09:40.194Z,15.84
2019-05-16T10:12:08.289Z,17.21
2019-05-16T10:14:33.528Z,17.64
2019-05-16T10:17:07.972Z,17.25
2019-05-16T10:19:38.897Z,16.90
2019-05-16T10:22:10.803Z,16.72
2019-05-16T10:24:41.982Z,16.58
2019-05-16T10:27:13.906Z,17.58
2019-05-16T10:29:48.405Z,17.93
2019-05-16T10:32:19.552Z,17.44
2019-05-16T10:34:51.539Z,17.60
2019-05-16T10:37:23.478Z,17.46
2019-05-16T10:39:56.372Z,17.48
2019-05-16T10:42:29.361Z,16.99
2019-05-16T10:45:01.390Z,16.52
2019-05-16T10:47:36.924Z,16.26
2019-05-16T10:50:09.199Z,15.59
2019-05-16T10:52:41.076Z,15.37
2019-05-16T10:55:13.389Z,14.84
2019-05-16T10:57:47.499Z,14.77
2019-05-16T11:00:42.651Z,14.95
2019-05-16T11:02:58.725Z,15.08
2019-05-16T11:05:33.671Z,15.50
2019-05-16T11:08:02.498Z,15.98
2019-05-16T11:10:37.167Z,16.04
2019-05-16T11:13:08.253Z,16.44
2019-05-16T11:15:40.355Z,16.51
2019-05-16T11:18:11.588Z,16.54
2019-05-16T11:20:44.955Z,16.51
2019-05-16T11:23:22.199Z,16.30
2019-05-16T11:25:49.938Z,16.05
2019-05-16T11:28:21.912Z,15.95
2019-05-16T11:30:53.228Z,15.84
2019-05-16T11:33:24.429Z,15.72
2019-05-16T11:35:56.259Z,15.65
2019-05-16T11:38:28.273Z,15.59
2019-05-16T11:41:00.363Z,15.42
2019-05-16T11:43:32.342Z,15.40
2019-05-16T11:46:03.555Z,15.34
2019-05-16T11:48:37.682Z,15.77
2019-05-16T11:51:09.322Z,16.07
2019-05-16T11:53:41.302Z,16.09
2019-05-16T11:56:12.488Z,15.88
2019-05-16T11:58:44.347Z,15.82
2019-05-16T12:01:16.535Z,15.76
2019-05-16T12:03:48.452Z,15.64
2019-05-16T12:06:19.704Z,15.26
2019-05-16T12:08:51.531Z,15.14
2019-05-16T12:11:23.556Z,15.27
2019-05-16T12:13:56.697Z,15.53
2019-05-16T12:16:28.137Z,15.59
2019-05-16T12:18:59.376Z,15.77
2019-05-16T12:21:31.194Z,15.70
2019-05-16T12:24:02.578Z,16.00
2019-05-16T12:26:39.487Z,16.08
2019-05-16T12:29:11.428Z,15.52
2019-05-16T12:31:55.188Z,15.37
2019-05-16T12:34:17.055Z,15.55
2019-05-16T12:36:49.132Z,15.62
2019-05-16T12:39:21.370Z,15.71
2019-05-16T12:41:53.303Z,16.10
2019-05-16T12:44:26.895Z,16.06
2019-05-16T12:46:58.931Z,15.82
2019-05-16T12:49:30.287Z,15.51
2019-05-16T12:52:02.202Z,15.51
2019-05-16T12:54:33.473Z,15.30
2019-05-16T12:57:04.877Z,15.21
2019-05-16T12:59:36.933Z,15.23
2019-05-16T13:02:08.465Z,15.11
2019-05-16T13:04:40.307Z,14.88
2019-05-16T13:07:12.593Z,14.86
2019-05-16T13:09:46.663Z,14.75
2019-05-16T13:12:18.075Z,14.75
2019-05-16T13:14:50.052Z,14.72
2019-05-16T13:17:21.388Z,14.65
2019-05-16T13:19:53.460Z,14.59
2019-05-16T13:22:27.546Z,14.63
2019-05-16T13:24:58.957Z,14.75
2019-05-16T13:27:30.987Z,14.56
2019-05-16T13:30:02.283Z,14.82
2019-05-16T13:32:34.207Z,15.23
2019-05-16T13:35:07.753Z,15.40
2019-05-16T13:37:39.129Z,15.34
2019-05-16T13:40:11.715Z,15.36
2019-05-16T13:42:43.608Z,15.41
2019-05-16T13:45:18.022Z,15.19
2019-05-16T13:47:49.479Z,15.11
2019-05-16T13:50:20.891Z,15.06
2019-05-16T13:52:53.064Z,15.51
2019-05-16T13:55:24.206Z,15.66
2019-05-16T13:57:56.124Z,15.88
2019-05-16T14:00:28.378Z,16.29
2019-05-16T14:02:59.643Z,17.28
2019-05-16T14:05:31.544Z,17.88
2019-05-16T14:08:03.486Z,18.64
2019-05-16T14:10:37.471Z,18.38
2019-05-16T14:13:09.429Z,18.14
2019-05-16T14:15:41.375Z,18.51
2019-05-16T14:18:13.311Z,17.94
2019-05-16T14:20:46.622Z,17.89
2019-05-16T14:23:18.854Z,18.27
2019-05-16T14:25:50.868Z,18.34
2019-05-16T14:28:22.943Z,17.95
2019-05-16T14:30:57.073Z,17.79
2019-05-16T14:33:28.702Z,17.35
2019-05-16T14:36:00.667Z,17.40
2019-05-16T14:38:32.737Z,17.05
2019-05-16T14:41:04.770Z,16.53
2019-05-16T14:43:36.798Z,16.37
2019-05-16T14:46:09.655Z,15.58
2019-05-16T14:48:41.209Z,14.95
2019-05-16T14:51:12.472Z,14.73
2019-05-16T14:53:46.916Z,14.17
2019-05-16T14:56:18.090Z,13.86
2019-05-16T14:58:50.016Z,13.45
2019-05-16T15:01:22.648Z,13.45
2019-05-16T15:03:56.533Z,13.76
2019-05-16T15:06:28.626Z,14.00
2019-05-16T15:09:00.575Z,14.01
2019-05-16T15:11:34.067Z,14.03
2019-05-16T15:14:07.123Z,13.91
2019-05-16T15:16:39.317Z,14.03
2019-05-16T15:19:12.272Z,14.12
2019-05-16T15:21:44.259Z,14.25
2019-05-16T15:24:30.082Z,14.35
2019-05-16T15:27:03.788Z,14.59
2019-05-16T15:29:37.804Z,14.64
2019-05-16T15:32:12.970Z,14.94
2019-05-16T15:34:47.433Z,15.23
2019-05-16T15:37:19.558Z,15.57
2019-05-16T15:39:54.086Z,15.99
2019-05-16T15:42:27.567Z,16.48
2019-05-16T15:44:58.322Z,16.36
2019-05-16T15:47:30.606Z,16.35
2019-05-16T15:50:08.045Z,16.17
2019-05-16T15:52:39.514Z,15.89
2019-05-16T15:55:11.491Z,15.45
2019-05-16T15:57:43.737Z,15.28
2019-05-16T16:00:48.622Z,15.18
2019-05-16T16:03:52.542Z,15.39
2019-05-16T16:06:27.433Z,16.04
2019-05-16T16:08:58.065Z,16.27
2019-05-16T16:12:37.547Z,16.06
2019-05-16T16:15:54.292Z,16.05
2019-05-16T16:18:27.055Z,15.96
2019-05-16T16:21:22.593Z,16.08
2019-05-16T16:24:09.311Z,16.16
2019-05-16T16:26:41.778Z,16.04
2019-05-16T16:29:13.815Z,15.50
2019-05-16T16:31:49.129Z,15.17
2019-05-16T16:34:21.147Z,15.10
2019-05-16T16:36:52.541Z,15.17
2019-05-16T16:39:26.811Z,15.18
2019-05-16T16:41:58.162Z,15.17
2019-05-16T16:44:30.457Z,15.22
2019-05-16T16:47:27.014Z,15.07
2019-05-16T16:49:52.458Z,15.02
2019-05-16T16:52:24.463Z,15.13
2019-05-16T16:54:56.886Z,15.70
2019-05-16T16:57:28.957Z,15.56
2019-05-16T17:00:02.314Z,16.05
2019-05-16T17:02:37.321Z,16.79
2019-05-16T17:05:13.172Z,17.08
2019-05-16T17:07:48.531Z,17.03
2019-05-16T17:13:43.305Z,16.57
2019-05-16T17:16:25.987Z,16.06
2019-05-16T17:18:53.102Z,15.74
2019-05-16T17:22:06.219Z,15.66
2019-05-16T17:24:31.989Z,15.28
2019-05-16T17:27:09.306Z,14.76
2019-05-16T17:29:47.806Z,14.41
2019-05-16T17:32:21.503Z,14.45
2019-05-16T17:34:53.599Z,14.67
2019-05-16T17:37:28.446Z,14.53
2019-05-16T17:40:00.687Z,14.49
2019-05-16T17:42:34.623Z,14.40
2019-05-16T17:45:07.424Z,14.26
2019-05-16T17:47:41.860Z,14.04
2019-05-16T17:50:19.776Z,14.00
2019-05-16T17:52:53.963Z,14.03
2019-05-16T17:55:30.631Z,13.96
2019-05-16T17:58:07.967Z,13.72
2019-05-16T18:00:41.653Z,13.48
2019-05-16T18:03:23.250Z,13.40
2019-05-16T18:05:57.447Z,13.10
2019-05-16T18:08:37.733Z,12.90
2019-05-16T18:11:09.264Z,12.57
2019-05-16T18:13:40.682Z,12.36
2019-05-16T18:16:15.818Z,12.24
2019-05-16T18:19:40.176Z,12.14
2019-05-16T18:22:28.977Z,11.95
2019-05-16T18:25:02.461Z,11.72
2019-05-16T18:27:48.787Z,11.50
2019-05-16T18:30:19.943Z,11.27
2019-05-16T18:32:51.705Z,11.11
2019-05-16T18:35:27.174Z,11.01
2019-05-16T18:37:58.334Z,11.06
2019-05-16T18:40:30.505Z,11.13
2019-05-16T18:43:02.131Z,11.21
2019-05-16T18:45:33.346Z,11.26
2019-05-16T18:48:06.996Z,11.33
2019-05-16T18:50:38.333Z,11.35
2019-05-16T18:53:09.591Z,11.42
2019-05-16T18:55:40.755Z,11.41
2019-05-16T18:58:12.586Z,11.42
2019-05-16T19:00:43.848Z,11.48
2019-05-16T19:03:16.498Z,11.51
2019-05-16T19:05:47.898Z,11.53
2019-05-16T19:08:19.142Z,11.51
2019-05-16T19:10:50.284Z,11.47
2019-05-16T19:13:21.441Z,11.39
2019-05-16T19:15:53.240Z,11.38
2019-05-16T19:18:26.287Z,11.43
2019-05-16T19:20:57.622Z,11.37
2019-05-16T19:23:29.838Z,11.39
2019-05-16T19:26:01.708Z,11.41
2019-05-16T19:28:33.710Z,11.45
2019-05-16T19:31:06.606Z,11.48
2019-05-16T19:33:38.627Z,11.51
2019-05-16T19:36:10.023Z,11.48
2019-05-16T19:38:43.749Z,11.55
2019-05-16T19:41:15.567Z,11.56
2019-05-16T19:43:48.181Z,11.48
2019-05-16T19:46:23.368Z,11.43
2019-05-16T19:48:53.609Z,11.38
2019-05-16T19:51:26.790Z,11.33
2019-05-16T19:53:59.598Z,11.26
2019-05-16T19:56:30.829Z,11.20
2019-05-16T19:59:02.094Z,11.17
2019-05-16T20:01:33.236Z,11.17
2019-05-16T20:04:06.092Z,11.15
2019-05-16T20:06:53.911Z,11.17
2019-05-16T20:09:26.873Z,11.13
2019-05-16T20:12:04.671Z,11.12
2019-05-16T20:14:39.977Z,11.05
2019-05-16T20:17:12.435Z,10.93
2019-05-16T20:19:49.645Z,10.77
2019-05-16T20:22:20.104Z,10.62
2019-05-16T20:24:56.522Z,10.51
2019-05-16T20:27:36.787Z,10.58
2019-05-16T20:30:23.642Z,10.53
2019-05-16T20:33:00.985Z,10.52
2019-05-16T20:35:34.339Z,10.56
2019-05-16T20:38:08.949Z,10.56
2019-05-16T20:40:40.125Z,10.55
2019-05-16T20:43:11.514Z,10.56
2019-05-16T20:45:44.352Z,10.63
2019-05-16T20:48:18.613Z,10.66
2019-05-16T20:50:49.682Z,10.65
2019-05-16T20:53:21.230Z,10.65
2019-05-16T20:55:57.220Z,10.64
2019-05-16T20:58:31.914Z,10.63
2019-05-16T21:01:06.973Z,10.65
2019-05-16T21:03:58.376Z,10.64
2019-05-16T21:06:31.777Z,10.54
2019-05-16T21:09:06.760Z,10.36
2019-05-16T21:11:38.239Z,10.20
2019-05-16T21:14:12.488Z,10.04
2019-05-16T21:16:43.716Z,9.90
2019-05-16T21:19:16.338Z,9.72
2019-05-16T21:21:48.621Z,9.55
2019-05-16T21:24:22.177Z,9.38
2019-05-16T21:26:54.407Z,9.22
2019-05-16T21:29:32.760Z,9.11
2019-05-16T21:32:16.226Z,9.00
2019-05-16T21:34:48.218Z,9.03
2019-05-16T21:37:23.343Z,8.95
2019-05-16T21:39:59.411Z,8.99
2019-05-16T21:42:31.979Z,8.99
2019-05-16T21:45:06.279Z,8.96
2019-05-16T21:47:39.199Z,9.01
2019-05-16T21:50:16.363Z,8.84
2019-05-16T21:52:47.744Z,8.74
2019-05-16T21:55:21.043Z,8.75
2019-05-16T21:57:53.894Z,8.53
2019-05-16T22:00:47.351Z,8.55
2019-05-16T22:03:18.200Z,8.42
2019-05-16T22:05:50.171Z,8.25
2019-05-16T22:08:22.139Z,8.12
2019-05-16T22:10:54.340Z,8.04
2019-05-16T22:13:27.004Z,7.98
2019-05-16T22:16:00.283Z,7.96
2019-05-16T22:18:38.101Z,7.93
2019-05-16T22:21:08.486Z,7.92
2019-05-16T22:23:40.594Z,8.00
2019-05-16T22:26:12.644Z,7.93
2019-05-16T22:28:49.439Z,7.86
2019-05-16T22:31:23.328Z,7.79
2019-05-16T22:33:55.254Z,7.71
2019-05-16T22:36:29.000Z,7.63
2019-05-16T22:39:01.643Z,7.52
2019-05-16T22:41:37.193Z,7.45
2019-05-16T22:44:09.253Z,7.38
2019-05-16T22:46:42.779Z,7.33
2019-05-16T22:49:17.044Z,7.31
2019-05-16T22:51:51.831Z,7.31
2019-05-16T22:54:26.287Z,7.35
2019-05-16T22:56:58.314Z,7.46
2019-05-16T22:59:29.654Z,7.49
2019-05-16T23:02:01.468Z,7.54
2019-05-16T23:04:33.311Z,7.62
2019-05-16T23:07:07.256Z,7.70
2019-05-16T23:09:39.186Z,7.84
2019-05-16T23:12:13.945Z,7.98
2019-05-16T23:14:46.302Z,8.11
2019-05-16T23:17:18.932Z,8.22
2019-05-16T23:19:50.838Z,8.32
2019-05-16T23:22:24.279Z,8.42
2019-05-16T23:24:57.012Z,8.47
2019-05-16T23:27:28.844Z,8.51
2019-05-16T23:30:00.689Z,8.57
2019-05-16T23:32:32.844Z,8.64
2019-05-16T23:35:06.912Z,8.72
2019-05-16T23:37:39.018Z,8.81
2019-05-16T23:40:12.546Z,8.89
2019-05-16T23:42:46.451Z,8.94
2019-05-16T23:45:18.189Z,9.13
2019-05-16T23:47:50.217Z,9.15
2019-05-16T23:50:21.476Z,9.09
2019-05-16T23:52:53.276Z,9.04
2019-05-16T23:55:27.666Z,9.11
2019-05-16T23:58:01.745Z,9.04
